createdAt,value
2022-07-25T00:01:12.728Z,23.90
2022-07-25T00:03:42.412Z,23.80
2022-07-25T00:06:13.432Z,23.80
2022-07-25T00:08:45.098Z,23.70
2022-07-25T00:11:12.462Z,23.70
2022-07-25T00:13:39.743Z,23.70
2022-07-25T00:16:07.291Z,23.70
2022-07-25T00:18:35.866Z,23.60
2022-07-25T00:21:03.724Z,23.50
2022-07-25T00:23:31.069Z,23.50
2022-07-25T00:25:58.970Z,23.40
2022-07-25T00:28:26.243Z,23.40
2022-07-25T00:30:53.831Z,23.50
2022-07-25T00:33:23.921Z,23.40
2022-07-25T00:35:51.342Z,23.40
2022-07-25T00:38:18.859Z,23.30
2022-07-25T00:40:46.276Z,23.30
2022-07-25T00:43:21.702Z,23.30
2022-07-25T00:45:49.094Z,23.30
2022-07-25T00:48:16.598Z,23.20
2022-07-25T00:50:44.289Z,23.20
2022-07-25T00:53:11.632Z,23.10
2022-07-25T00:55:42.401Z,23.00
2022-07-25T00:58:14.775Z,22.90
2022-07-25T01:00:42.302Z,22.90
2022-07-25T01:03:09.764Z,22.90
2022-07-25T01:05:42.113Z,22.80
2022-07-25T01:08:09.991Z,22.70
2022-07-25T01:10:38.157Z,22.60
2022-07-25T01:13:05.575Z,22.60
2022-07-25T01:15:33.090Z,22.60
2022-07-25T01:18:00.519Z,22.60
2022-07-25T01:20:30.060Z,22.60
2022-07-25T01:22:58.470Z,22.60
2022-07-25T01:25:27.172Z,22.60
2022-07-25T01:27:56.141Z,22.70
2022-07-25T01:30:25.169Z,22.70
2022-07-25T01:32:53.278Z,22.60
2022-07-25T01:35:20.984Z,22.60
2022-07-25T01:37:48.370Z,22.60
2022-07-25T01:40:15.763Z,22.60
2022-07-25T01:42:43.954Z,22.60
2022-07-25T01:45:12.206Z,22.50
2022-07-25T01:47:40.157Z,22.40
2022-07-25T01:50:10.852Z,22.40
2022-07-25T01:52:39.534Z,22.30
2022-07-25T01:55:10.223Z,22.30
2022-07-25T01:57:39.603Z,22.30
2022-07-25T02:00:10.886Z,22.30
2022-07-25T02:02:38.164Z,22.20
2022-07-25T02:05:06.232Z,22.20
2022-07-25T02:07:33.890Z,22.20
2022-07-25T02:10:01.356Z,22.10
2022-07-25T02:12:28.852Z,22.10
2022-07-25T02:14:56.194Z,22.10
2022-07-25T02:17:23.814Z,22.10
2022-07-25T02:19:51.427Z,22.10
2022-07-25T02:22:19.846Z,22.00
2022-07-25T02:24:47.216Z,22.00
2022-07-25T02:27:14.528Z,22.00
2022-07-25T02:29:41.825Z,21.90
2022-07-25T02:32:09.229Z,21.90
2022-07-25T02:34:36.583Z,21.90
2022-07-25T02:37:03.901Z,21.90
2022-07-25T02:39:31.228Z,21.80
2022-07-25T02:41:58.495Z,21.90
2022-07-25T02:44:25.860Z,21.90
2022-07-25T02:46:53.188Z,21.80
2022-07-25T02:49:20.827Z,21.80
2022-07-25T02:51:48.152Z,21.80
2022-07-25T02:54:16.088Z,21.70
2022-07-25T02:56:43.661Z,21.60
2022-07-25T02:59:10.999Z,21.60
2022-07-25T03:01:38.425Z,21.60
2022-07-25T03:04:06.036Z,21.70
2022-07-25T03:06:33.555Z,21.60
2022-07-25T03:09:00.853Z,21.70
2022-07-25T03:11:30.592Z,21.70
2022-07-25T03:13:58.432Z,21.70
2022-07-25T03:16:26.443Z,21.60
2022-07-25T03:18:54.584Z,21.40
2022-07-25T03:21:21.848Z,21.40
2022-07-25T03:23:52.421Z,21.30
2022-07-25T03:26:21.225Z,21.20
2022-07-25T03:28:48.606Z,21.20
2022-07-25T03:31:16.349Z,21.10
2022-07-25T03:33:43.689Z,21.10
2022-07-25T03:36:11.676Z,21.00
2022-07-25T03:38:39.467Z,20.90
2022-07-25T03:41:06.890Z,20.90
2022-07-25T03:43:35.335Z,20.80
2022-07-25T03:46:02.877Z,20.80
2022-07-25T03:48:30.780Z,20.80
2022-07-25T03:50:59.478Z,20.70
2022-07-25T03:53:28.586Z,20.70
2022-07-25T03:55:56.053Z,20.70
2022-07-25T03:58:23.344Z,20.80
2022-07-25T04:00:54.388Z,20.80
2022-07-25T04:03:21.816Z,20.90
2022-07-25T04:05:49.351Z,20.90
2022-07-25T04:08:16.632Z,20.80
2022-07-25T04:10:44.019Z,20.90
2022-07-25T04:13:11.734Z,20.90
2022-07-25T04:15:39.068Z,20.90
2022-07-25T04:18:07.247Z,20.80
2022-07-25T04:20:37.559Z,20.90
2022-07-25T04:23:05.391Z,20.70
2022-07-25T04:25:32.668Z,20.70
2022-07-25T04:27:59.977Z,20.70
2022-07-25T04:30:27.259Z,20.80
2022-07-25T04:32:54.600Z,20.90
2022-07-25T04:35:21.998Z,21.00
2022-07-25T04:37:52.192Z,21.10
2022-07-25T04:40:22.280Z,21.10
2022-07-25T04:42:49.589Z,21.20
2022-07-25T04:45:17.584Z,21.30
2022-07-25T04:47:45.267Z,21.50
2022-07-25T04:50:13.097Z,21.70
2022-07-25T04:52:40.413Z,21.80
2022-07-25T04:55:08.515Z,21.80
2022-07-25T04:57:36.040Z,21.80
2022-07-25T05:00:08.095Z,21.80
2022-07-25T05:02:36.043Z,21.80
2022-07-25T05:05:04.350Z,21.90
2022-07-25T05:07:31.846Z,21.90
2022-07-25T05:09:59.150Z,21.90
2022-07-25T05:12:26.516Z,22.00
2022-07-25T05:14:55.039Z,22.00
2022-07-25T05:17:22.357Z,22.00
2022-07-25T05:19:49.709Z,22.00
2022-07-25T05:22:17.066Z,22.00
2022-07-25T05:24:44.413Z,22.00
2022-07-25T05:27:11.750Z,22.00
2022-07-25T05:29:39.150Z,22.10
2022-07-25T05:32:06.572Z,22.00
2022-07-25T05:34:33.885Z,22.10
2022-07-25T05:37:01.333Z,22.20
2022-07-25T05:39:28.631Z,22.30
2022-07-25T05:41:55.936Z,22.30
2022-07-25T05:44:23.415Z,22.40
2022-07-25T05:46:50.785Z,22.40
2022-07-25T05:49:18.254Z,22.40
2022-07-25T05:51:45.699Z,22.40
2022-07-25T05:54:13.004Z,22.40
2022-07-25T05:56:40.553Z,22.40
2022-07-25T05:59:07.906Z,22.60
2022-07-25T06:01:35.299Z,22.60
2022-07-25T06:04:02.826Z,22.70
2022-07-25T06:06:32.699Z,22.70
2022-07-25T06:09:00.128Z,22.70
2022-07-25T06:11:29.206Z,22.80
2022-07-25T06:13:58.236Z,23.00
2022-07-25T06:16:25.715Z,23.00
2022-07-25T06:18:53.148Z,23.10
2022-07-25T06:21:20.486Z,23.30
2022-07-25T06:23:47.822Z,23.40
2022-07-25T06:26:15.215Z,23.50
2022-07-25T06:28:42.572Z,23.60
2022-07-25T06:31:09.976Z,23.60
2022-07-25T06:33:37.358Z,23.70
2022-07-25T06:36:06.475Z,23.70
2022-07-25T06:38:33.968Z,23.70
2022-07-25T06:41:01.307Z,23.80
2022-07-25T06:43:28.652Z,23.90
2022-07-25T06:45:55.985Z,24.00
2022-07-25T06:48:24.339Z,24.10
2022-07-25T06:50:52.547Z,24.10
2022-07-25T06:53:19.881Z,24.20
2022-07-25T06:55:47.216Z,24.30
2022-07-25T06:58:14.591Z,24.40
2022-07-25T07:00:41.978Z,24.50
2022-07-25T07:03:09.310Z,24.60
2022-07-25T07:05:37.204Z,24.70
2022-07-25T07:08:06.080Z,24.90
2022-07-25T07:10:33.457Z,25.00
2022-07-25T07:13:12.571Z,25.20
2022-07-25T07:15:43.928Z,25.30
2022-07-25T07:18:11.317Z,25.40
2022-07-25T07:20:38.683Z,25.40
2022-07-25T07:23:05.984Z,25.50
2022-07-25T07:25:33.983Z,25.60
2022-07-25T07:28:01.635Z,25.70
2022-07-25T07:30:58.621Z,25.80
2022-07-25T07:33:16.557Z,25.90
2022-07-25T07:35:45.167Z,26.00
2022-07-25T07:38:12.505Z,26.10
2022-07-25T07:40:39.799Z,26.10
2022-07-25T07:43:07.236Z,26.20
2022-07-25T07:45:35.795Z,26.40
2022-07-25T07:48:03.186Z,26.60
2022-07-25T07:50:33.178Z,26.70
2022-07-25T07:53:00.970Z,26.90
2022-07-25T07:55:45.103Z,27.10
2022-07-25T07:58:17.497Z,27.20
2022-07-25T08:00:46.987Z,27.30
2022-07-25T08:03:19.507Z,27.30
2022-07-25T08:05:48.900Z,27.50
2022-07-25T08:08:16.796Z,27.80
2022-07-25T08:10:48.829Z,27.90
2022-07-25T08:13:18.124Z,28.00
2022-07-25T08:15:48.016Z,28.20
2022-07-25T08:18:17.090Z,28.40
2022-07-25T08:20:49.128Z,28.50
2022-07-25T08:23:17.215Z,28.70
2022-07-25T08:25:48.522Z,28.90
2022-07-25T08:28:15.888Z,29.10
2022-07-25T08:30:43.945Z,29.10
2022-07-25T08:33:16.325Z,29.40
2022-07-25T08:35:53.634Z,29.50
2022-07-25T08:38:22.915Z,29.50
2022-07-25T08:40:50.788Z,29.80
2022-07-25T08:43:21.670Z,30.00
2022-07-25T08:48:34.038Z,30.30
2022-07-25T08:51:03.362Z,30.60
2022-07-25T08:53:34.015Z,30.90
2022-07-25T08:56:09.962Z,31.20
2022-07-25T08:58:44.300Z,31.70
2022-07-25T09:01:13.257Z,32.00
2022-07-25T09:03:42.888Z,32.20
2022-07-25T09:06:21.509Z,32.20
2022-07-25T09:08:54.006Z,32.10
2022-07-25T09:11:35.163Z,32.00
2022-07-25T09:14:08.989Z,31.90
2022-07-25T09:16:44.855Z,31.70
2022-07-25T09:19:17.474Z,31.60
2022-07-25T09:21:57.446Z,31.60
2022-07-25T09:24:25.579Z,31.70
2022-07-25T09:26:55.120Z,31.90
2022-07-25T09:29:33.441Z,32.20
2022-07-25T09:32:02.399Z,32.60
2022-07-25T09:34:33.925Z,32.70
2022-07-25T09:37:03.712Z,33.10
2022-07-25T09:39:45.499Z,33.50
2022-07-25T09:42:22.915Z,33.70
2022-07-25T09:45:09.968Z,33.50
2022-07-25T09:47:51.354Z,33.40
2022-07-25T09:50:23.013Z,33.30
2022-07-25T09:52:52.861Z,33.40
2022-07-25T09:55:21.598Z,33.70
2022-07-25T09:57:49.755Z,34.00
2022-07-25T10:00:23.386Z,34.20
2022-07-25T10:03:15.434Z,34.40
2022-07-25T10:06:04.744Z,34.50
2022-07-25T10:08:39.696Z,34.60
2022-07-25T10:11:27.781Z,34.70
2022-07-25T10:13:56.456Z,35.00
2022-07-25T10:16:25.872Z,35.50
2022-07-25T10:18:55.767Z,36.10
2022-07-25T10:21:27.680Z,36.10
2022-07-25T10:24:09.868Z,35.70
2022-07-25T10:26:39.810Z,35.40
2022-07-25T10:29:11.614Z,35.10
2022-07-25T10:31:49.303Z,35.00
2022-07-25T10:34:30.251Z,35.10
2022-07-25T10:36:57.640Z,35.60
2022-07-25T10:39:25.031Z,36.10
2022-07-25T10:41:54.749Z,36.50
2022-07-25T10:44:22.298Z,36.10
2022-07-25T10:46:50.335Z,35.60
2022-07-25T10:49:20.001Z,35.30
2022-07-25T10:51:59.459Z,35.30
2022-07-25T10:54:34.069Z,35.40
2022-07-25T10:57:01.598Z,35.20
2022-07-25T10:59:38.932Z,35.10
2022-07-25T11:02:09.569Z,35.00
2022-07-25T11:04:37.426Z,35.20
2022-07-25T11:07:17.672Z,35.80
2022-07-25T11:09:45.169Z,36.00
2022-07-25T11:12:18.761Z,36.00
2022-07-25T11:14:47.477Z,36.40
2022-07-25T11:17:24.829Z,37.30
2022-07-25T11:20:03.147Z,37.80
2022-07-25T11:22:31.743Z,37.60
2022-07-25T11:25:00.424Z,37.70
2022-07-25T11:27:33.024Z,37.70
2022-07-25T11:30:19.014Z,37.60
2022-07-25T11:32:54.300Z,37.20
2022-07-25T11:35:25.243Z,37.80
2022-07-25T11:37:53.492Z,36.70
2022-07-25T11:40:22.413Z,35.70
2022-07-25T11:42:56.286Z,35.10
2022-07-25T11:45:36.517Z,35.30
2022-07-25T11:48:13.466Z,35.40
2022-07-25T11:50:44.683Z,35.40
2022-07-25T11:53:14.761Z,35.80
2022-07-25T11:55:43.371Z,36.30
2022-07-25T11:58:12.924Z,36.00
2022-07-25T12:00:46.314Z,36.50
2022-07-25T12:03:19.877Z,37.10
2022-07-25T12:05:49.693Z,36.70
2022-07-25T12:08:19.320Z,35.50
2022-07-25T12:10:49.092Z,35.00
2022-07-25T12:13:28.052Z,34.40
2022-07-25T12:15:59.922Z,33.60
2022-07-25T12:18:27.925Z,33.10
2022-07-25T12:20:55.530Z,33.00
2022-07-25T12:23:22.884Z,32.80
2022-07-25T12:25:50.473Z,32.50
2022-07-25T12:28:18.135Z,32.30
2022-07-25T12:30:46.710Z,32.50
2022-07-25T12:33:14.923Z,32.80
2022-07-25T12:35:43.630Z,33.00
2022-07-25T12:38:11.263Z,33.30
2022-07-25T12:40:39.100Z,33.40
2022-07-25T12:43:06.819Z,33.80
2022-07-25T12:45:34.326Z,35.10
2022-07-25T12:48:01.653Z,37.00
2022-07-25T12:50:29.044Z,36.70
2022-07-25T12:52:56.403Z,37.20
2022-07-25T12:55:23.984Z,37.40
2022-07-25T12:57:51.329Z,37.60
2022-07-25T13:00:21.329Z,39.70
2022-07-25T13:02:51.220Z,41.10
2022-07-25T13:05:19.640Z,42.20
2022-07-25T13:07:48.891Z,41.50
2022-07-25T13:10:16.931Z,39.50
2022-07-25T13:12:44.352Z,40.90
2022-07-25T13:15:13.867Z,42.10
2022-07-25T13:17:41.906Z,41.00
2022-07-25T13:20:12.815Z,39.50
2022-07-25T13:22:43.095Z,39.30
2022-07-25T13:25:10.403Z,38.20
2022-07-25T13:27:40.785Z,37.20
2022-07-25T13:30:08.833Z,37.00
2022-07-25T13:32:38.897Z,38.30
2022-07-25T13:35:06.782Z,40.00
2022-07-25T13:37:34.770Z,39.30
2022-07-25T13:40:04.311Z,38.20
2022-07-25T13:42:34.423Z,37.80
2022-07-25T13:45:01.815Z,39.30
2022-07-25T13:47:32.187Z,38.40
2022-07-25T13:49:59.502Z,38.30
2022-07-25T13:52:26.853Z,36.90
2022-07-25T13:54:54.173Z,38.20
2022-07-25T13:57:21.630Z,38.20
2022-07-25T13:59:49.068Z,37.90
2022-07-25T14:02:16.517Z,37.40
2022-07-25T14:04:44.014Z,37.30
2022-07-25T14:07:11.281Z,37.50
2022-07-25T14:09:38.806Z,37.70
2022-07-25T14:12:09.111Z,37.30
2022-07-25T14:14:38.741Z,38.40
2022-07-25T14:17:09.178Z,39.50
2022-07-25T14:19:36.712Z,40.60
2022-07-25T14:22:04.299Z,41.60
2022-07-25T14:24:31.637Z,41.90
2022-07-25T14:26:59.054Z,41.70
2022-07-25T14:29:30.445Z,41.20
2022-07-25T14:31:58.172Z,41.20
2022-07-25T14:34:25.566Z,41.60
2022-07-25T14:36:55.442Z,40.30
2022-07-25T14:39:23.170Z,40.70
2022-07-25T14:41:50.466Z,40.80
2022-07-25T14:44:19.467Z,41.80
2022-07-25T14:46:48.980Z,40.40
2022-07-25T14:49:16.867Z,41.60
2022-07-25T14:51:45.641Z,42.20
2022-07-25T14:54:13.100Z,41.90
2022-07-25T14:56:40.441Z,41.00
2022-07-25T14:59:11.097Z,39.00
2022-07-25T15:01:39.284Z,39.00
2022-07-25T15:04:07.254Z,38.00
2022-07-25T15:06:35.579Z,37.00
2022-07-25T15:09:03.198Z,37.00
2022-07-25T15:11:30.682Z,37.20
2022-07-25T15:13:58.211Z,37.10
2022-07-25T15:16:25.749Z,36.80
2022-07-25T15:19:15.056Z,35.80
2022-07-25T15:21:40.596Z,35.10
2022-07-25T15:24:08.191Z,35.50
2022-07-25T15:26:36.699Z,35.90
2022-07-25T15:29:08.282Z,35.90
2022-07-25T15:31:36.793Z,36.30
2022-07-25T15:34:04.482Z,36.10
2022-07-25T15:36:34.709Z,37.40
2022-07-25T15:39:02.229Z,38.40
2022-07-25T15:41:32.006Z,38.30
2022-07-25T15:43:59.789Z,38.40
2022-07-25T15:46:28.858Z,39.20
2022-07-25T15:48:57.856Z,40.10
2022-07-25T15:51:25.535Z,40.50
2022-07-25T15:53:52.894Z,37.90
2022-07-25T15:56:20.564Z,37.80
2022-07-25T15:58:49.159Z,36.00
2022-07-25T16:01:16.811Z,35.50
2022-07-25T16:03:44.291Z,35.70
2022-07-25T16:06:15.550Z,35.50
2022-07-25T16:08:46.499Z,35.30
2022-07-25T16:11:13.978Z,35.20
2022-07-25T16:13:41.893Z,34.80
2022-07-25T16:16:10.087Z,35.60
2022-07-25T16:18:37.824Z,35.70
2022-07-25T16:21:05.708Z,35.70
2022-07-25T16:23:38.387Z,35.80
2022-07-25T16:26:08.552Z,36.80
2022-07-25T16:28:39.339Z,37.40
2022-07-25T16:31:07.267Z,38.80
2022-07-25T16:33:34.697Z,38.80
2022-07-25T16:36:02.287Z,39.90
2022-07-25T16:38:30.016Z,38.90
2022-07-25T16:40:57.329Z,37.10
2022-07-25T16:43:24.787Z,35.60
2022-07-25T16:45:52.066Z,34.40
2022-07-25T16:48:19.441Z,33.80
2022-07-25T16:50:47.907Z,34.00
2022-07-25T16:53:15.296Z,32.70
2022-07-25T16:55:42.665Z,32.70
2022-07-25T16:58:09.960Z,32.40
2022-07-25T17:00:38.794Z,32.40
2022-07-25T17:03:06.173Z,32.40
2022-07-25T17:05:36.604Z,32.10
2022-07-25T17:08:06.735Z,31.50
2022-07-25T17:10:34.076Z,31.40
2022-07-25T17:13:01.408Z,31.70
2022-07-25T17:15:28.986Z,31.30
2022-07-25T17:17:56.290Z,31.40
2022-07-25T17:20:23.791Z,31.70
2022-07-25T17:22:51.289Z,32.00
2022-07-25T17:25:20.757Z,33.30
2022-07-25T17:27:50.847Z,34.30
2022-07-25T17:30:18.208Z,34.50
2022-07-25T17:32:45.594Z,33.00
2022-07-25T17:35:12.851Z,33.20
2022-07-25T17:37:41.287Z,33.10
2022-07-25T17:40:09.570Z,32.30
2022-07-25T17:42:44.731Z,31.90
2022-07-25T17:45:13.276Z,31.20
2022-07-25T17:47:41.659Z,30.70
2022-07-25T17:50:09.778Z,30.50
2022-07-25T17:52:37.580Z,30.00
2022-07-25T17:55:05.601Z,29.40
2022-07-25T17:57:34.438Z,29.40
2022-07-25T18:00:02.315Z,29.20
2022-07-25T18:02:30.583Z,29.20
2022-07-25T18:05:04.820Z,29.20
2022-07-25T18:07:32.166Z,29.20
2022-07-25T18:10:02.682Z,29.20
2022-07-25T18:12:30.080Z,29.20
2022-07-25T18:14:57.379Z,29.10
2022-07-25T18:17:24.742Z,29.30
2022-07-25T18:19:52.896Z,29.20
2022-07-25T18:22:20.340Z,29.00
2022-07-25T18:24:47.598Z,28.60
2022-07-25T18:27:15.006Z,28.30
2022-07-25T18:29:42.652Z,28.10
2022-07-25T18:32:10.114Z,27.90
2022-07-25T18:34:37.433Z,27.70
2022-07-25T18:37:05.514Z,27.60
2022-07-25T18:39:32.842Z,27.50
2022-07-25T18:42:00.172Z,27.40
2022-07-25T18:44:27.441Z,27.30
2022-07-25T18:46:54.814Z,27.30
2022-07-25T18:49:27.073Z,27.40
2022-07-25T18:51:54.643Z,27.20
2022-07-25T18:54:22.029Z,27.00
2022-07-25T18:56:52.166Z,27.00
2022-07-25T18:59:19.529Z,27.00
2022-07-25T19:01:46.993Z,27.00
2022-07-25T19:04:15.281Z,27.00
2022-07-25T19:06:45.547Z,26.90
2022-07-25T19:09:12.923Z,26.80
2022-07-25T19:11:42.378Z,26.80
2022-07-25T19:14:10.371Z,26.60
2022-07-25T19:16:38.269Z,26.60
2022-07-25T19:19:10.032Z,26.60
2022-07-25T19:21:37.702Z,26.60
2022-07-25T19:24:05.850Z,26.50
2022-07-25T19:26:34.070Z,26.50
2022-07-25T19:29:01.473Z,26.50
2022-07-25T19:31:28.898Z,26.40
2022-07-25T19:33:56.238Z,26.40
2022-07-25T19:36:23.536Z,26.30
2022-07-25T19:38:50.958Z,26.30
2022-07-25T19:41:18.504Z,26.20
2022-07-25T19:43:45.883Z,26.20
2022-07-25T19:46:13.495Z,26.20
2022-07-25T19:48:40.947Z,26.10
2022-07-25T19:51:09.809Z,26.00
2022-07-25T19:53:37.422Z,25.90
2022-07-25T19:56:06.611Z,26.00
2022-07-25T19:58:38.918Z,26.00
2022-07-25T20:01:07.860Z,26.00
2022-07-25T20:03:35.725Z,25.80
2022-07-25T20:06:07.863Z,25.70
2022-07-25T20:08:37.171Z,25.70
2022-07-25T20:11:04.745Z,25.60
2022-07-25T20:13:32.115Z,25.50
2022-07-25T20:15:59.787Z,25.50
2022-07-25T20:18:27.097Z,25.50
2022-07-25T20:20:54.452Z,25.50
2022-07-25T20:23:23.067Z,25.50
2022-07-25T20:25:50.632Z,25.40
2022-07-25T20:28:18.733Z,25.40
2022-07-25T20:30:46.276Z,25.30
2022-07-25T20:33:13.721Z,25.20
2022-07-25T20:35:41.087Z,25.20
2022-07-25T20:38:10.752Z,25.20
2022-07-25T20:40:48.012Z,25.10
2022-07-25T20:43:17.286Z,25.10
2022-07-25T20:45:45.194Z,25.10
2022-07-25T20:48:15.669Z,25.10
2022-07-25T20:50:44.446Z,25.10
2022-07-25T20:53:12.948Z,25.00
2022-07-25T20:55:40.298Z,25.00
2022-07-25T20:58:07.712Z,25.00
2022-07-25T21:00:35.105Z,25.00
2022-07-25T21:03:02.772Z,24.90
2022-07-25T21:05:30.486Z,24.80
2022-07-25T21:07:57.975Z,24.70
2022-07-25T21:10:25.915Z,24.70
2022-07-25T21:12:55.819Z,24.60
2022-07-25T21:15:24.101Z,24.50
2022-07-25T21:17:51.492Z,24.50
2022-07-25T21:20:18.871Z,24.50
2022-07-25T21:22:46.174Z,24.40
2022-07-25T21:25:13.607Z,24.40
2022-07-25T21:27:41.224Z,24.30
2022-07-25T21:30:10.894Z,24.20
2022-07-25T21:32:39.370Z,24.20
2022-07-25T21:35:07.078Z,24.10
2022-07-25T21:37:34.405Z,24.00
2022-07-25T21:40:02.253Z,23.90
2022-07-25T21:42:29.896Z,23.80
2022-07-25T21:44:57.326Z,23.80
2022-07-25T21:47:24.653Z,23.70
2022-07-25T21:50:10.712Z,23.70
2022-07-25T21:52:43.685Z,23.60
2022-07-25T21:55:11.059Z,23.50
2022-07-25T21:57:38.468Z,23.50
2022-07-25T22:00:09.312Z,23.40
2022-07-25T22:02:36.695Z,23.30
2022-07-25T22:05:04.537Z,23.30
2022-07-25T22:07:31.836Z,23.10
2022-07-25T22:09:59.285Z,23.10
2022-07-25T22:12:26.846Z,23.00
2022-07-25T22:14:54.201Z,23.00
2022-07-25T22:17:21.512Z,23.00
2022-07-25T22:19:48.880Z,23.00
2022-07-25T22:22:19.082Z,23.10
2022-07-25T22:24:49.089Z,23.10
2022-07-25T22:27:19.382Z,23.20
2022-07-25T22:29:46.675Z,23.30
2022-07-25T22:32:14.002Z,23.30
2022-07-25T22:34:41.389Z,23.40
2022-07-25T22:37:08.718Z,23.40
2022-07-25T22:39:36.010Z,23.40
2022-07-25T22:42:03.303Z,23.40
2022-07-25T22:44:30.805Z,23.50
2022-07-25T22:46:58.113Z,23.50
2022-07-25T22:49:26.140Z,23.50
2022-07-25T22:51:56.710Z,23.50
2022-07-25T22:54:24.849Z,23.50
2022-07-25T22:56:52.212Z,23.50
2022-07-25T22:59:19.833Z,23.60
2022-07-25T23:01:47.219Z,23.60
2022-07-25T23:04:14.683Z,23.60
2022-07-25T23:06:44.522Z,23.50
2022-07-25T23:09:13.494Z,23.50
2022-07-25T23:11:40.830Z,23.50
2022-07-25T23:14:08.373Z,23.50
2022-07-25T23:16:35.841Z,23.40
2022-07-25T23:19:03.272Z,23.30
2022-07-25T23:21:30.820Z,23.30
2022-07-25T23:23:59.931Z,23.20
2022-07-25T23:26:28.245Z,23.10
2022-07-25T23:28:56.285Z,23.10
2022-07-25T23:31:23.699Z,23.10
2022-07-25T23:33:51.143Z,23.10
2022-07-25T23:36:18.475Z,23.00
2022-07-25T23:38:47.711Z,22.90
2022-07-25T23:41:15.024Z,22.80
2022-07-25T23:43:56.896Z,22.80
2022-07-25T23:46:27.981Z,22.80
2022-07-25T23:48:58.450Z,22.70
2022-07-25T23:51:26.547Z,22.70
2022-07-25T23:53:53.908Z,22.60
2022-07-25T23:56:21.499Z,22.60
2022-07-25T23:58:50.144Z,22.50
